createdAt,value
2018-03-16T11:47:46.552Z,9.3
2018-03-16T11:48:48.075Z,9.2
2018-03-16T11:49:49.609Z,9.2
2018-03-16T11:50:52.786Z,9.3
2018-03-16T11:51:54.282Z,9.2
2018-03-16T11:52:55.796Z,9.1
2018-03-16T11:53:57.386Z,9.3
2018-03-16T11:54:59.067Z,9.2
2018-03-16T11:56:00.632Z,9.3
2018-03-16T11:57:02.051Z,9.3
2018-03-16T11:58:03.492Z,9.3
2018-03-16T11:59:05.443Z,9.3
2018-03-16T12:00:07.291Z,9.3
2018-03-16T12:01:08.879Z,9.2
2018-03-16T12:02:10.430Z,9.3
2018-03-16T12:03:11.920Z,9.3
2018-03-16T12:04:13.571Z,9.3
2018-03-16T12:05:15.166Z,9.2
2018-03-16T12:06:17.065Z,9.3
2018-03-16T12:07:19.011Z,9.4
2018-03-16T12:08:20.814Z,9.4
2018-03-16T12:09:22.336Z,9.3
2018-03-16T12:10:24.068Z,9.3
2018-03-16T12:11:26.010Z,9.3
2018-03-16T12:12:27.786Z,9.2
2018-03-16T12:13:29.470Z,9.3
2018-03-16T12:14:31.095Z,9.4
2018-03-16T12:15:32.839Z,9.3
2018-03-16T12:16:35.094Z,9.3
2018-03-16T12:17:37.326Z,9.3
2018-03-16T12:18:39.046Z,9.4
2018-03-16T12:19:40.962Z,9.2
2018-03-16T12:20:42.639Z,9.3
2018-03-16T12:21:44.488Z,9.3
2018-03-16T12:22:46.370Z,9.4
2018-03-16T12:23:48.302Z,9.3
2018-03-16T12:24:50.568Z,9.4
2018-03-16T12:25:52.673Z,9.4
2018-03-16T12:26:54.650Z,9.4
2018-03-16T12:27:57.023Z,9.4
2018-03-16T12:28:59.010Z,9.4
2018-03-16T12:30:00.987Z,9.4
2018-03-16T12:31:02.900Z,9.5
2018-03-16T12:32:04.973Z,9.5
2018-03-16T12:33:08.728Z,9.4
2018-03-16T12:34:14.925Z,9.5
2018-03-16T12:35:18.143Z,9.5
2018-03-16T12:36:50.703Z,9.6
2018-03-16T12:37:52.637Z,9.5
2018-03-16T12:38:54.577Z,9.6
2018-03-16T12:39:56.511Z,9.7
2018-03-16T12:40:58.265Z,9.5
2018-03-16T12:41:59.886Z,9.7
2018-03-16T12:43:01.657Z,9.6
2018-03-16T12:44:03.771Z,9.7
2018-03-16T12:45:06.072Z,9.7
2018-03-16T12:46:08.190Z,9.8
2018-03-16T12:47:10.073Z,9.7
2018-03-16T12:48:11.742Z,9.8
2018-03-16T12:49:13.708Z,9.8
2018-03-16T12:50:15.527Z,9.9
2018-03-16T12:51:18.149Z,9.9
2018-03-16T12:52:21.763Z,9.8
2018-03-16T12:53:23.993Z,9.9
2018-03-16T12:54:29.616Z,9.9
2018-03-16T12:55:31.321Z,10.0
2018-03-16T12:56:33.349Z,10.0
2018-03-16T12:57:35.085Z,10.0
2018-03-16T12:58:36.692Z,10.0
2018-03-16T12:59:38.393Z,9.9
2018-03-16T13:00:40.098Z,9.9
2018-03-16T13:01:42.143Z,9.9
2018-03-16T13:02:44.085Z,10.0
2018-03-16T13:03:45.687Z,10.1
2018-03-16T13:04:47.309Z,10.1
2018-03-16T13:05:49.280Z,10.0
2018-03-16T13:06:51.105Z,10.1
2018-03-16T13:07:53.200Z,10.0
2018-03-16T13:08:55.342Z,10.1
2018-03-16T13:09:58.290Z,10.1
2018-03-16T13:11:00.021Z,10.1
2018-03-16T13:12:01.672Z,10.1
2018-03-16T13:13:03.507Z,10.1
2018-03-16T13:14:05.151Z,10.1
2018-03-16T13:15:07.373Z,10.2
2018-03-16T13:16:09.220Z,10.1
2018-03-16T13:17:11.316Z,10.1
2018-03-16T13:18:13.122Z,10.2
2018-03-16T13:19:15.255Z,10.2
2018-03-16T13:20:17.231Z,10.2
2018-03-16T13:21:18.923Z,10.3
2018-03-16T13:22:20.630Z,10.4
2018-03-16T13:23:22.426Z,10.3
2018-03-16T13:24:24.101Z,10.3
2018-03-16T13:25:25.664Z,10.5
2018-03-16T13:26:27.247Z,10.4
2018-03-16T13:27:29.136Z,10.4
2018-03-16T13:28:31.122Z,10.4
2018-03-16T13:29:33.404Z,10.5
2018-03-16T13:30:35.790Z,10.5
2018-03-16T13:31:37.896Z,10.6
2018-03-16T13:32:39.823Z,10.6
2018-03-16T13:33:42.193Z,10.5
2018-03-16T13:34:44.211Z,10.6
2018-03-16T13:35:46.445Z,10.5
2018-03-16T13:36:48.186Z,10.5
2018-03-16T13:37:50.144Z,10.6
2018-03-16T13:38:51.854Z,10.6
2018-03-16T13:39:53.604Z,10.6
2018-03-16T13:40:55.791Z,10.5
2018-03-16T13:41:57.628Z,10.5
2018-03-16T13:42:59.440Z,10.5
2018-03-16T13:44:01.445Z,10.5
2018-03-16T13:45:03.301Z,10.6
2018-03-16T13:46:06.677Z,10.6
2018-03-16T13:47:08.991Z,10.5
2018-03-16T13:48:10.888Z,10.5
2018-03-16T13:49:12.921Z,10.5
2018-03-16T13:50:15.762Z,10.6
2018-03-16T13:51:17.871Z,10.6
2018-03-16T13:52:20.802Z,10.6
2018-03-16T13:53:23.762Z,10.7
2018-03-16T13:54:25.597Z,10.6
2018-03-16T13:55:27.276Z,10.6
2018-03-16T13:59:42.646Z,10.7
2018-03-16T14:00:43.997Z,10.6
2018-03-16T14:01:49.785Z,10.7
2018-03-16T14:02:54.495Z,10.7
2018-03-16T14:03:59.796Z,10.7
2018-03-16T14:05:00.927Z,10.7
2018-03-16T14:06:02.816Z,10.6
2018-03-16T14:07:04.583Z,10.7
2018-03-16T14:08:06.189Z,10.7
2018-03-16T14:09:07.940Z,10.6
2018-03-16T14:10:10.579Z,10.7
2018-03-16T14:11:20.580Z,10.6
2018-03-16T14:12:22.359Z,10.7
2018-03-16T14:13:39.958Z,10.6
2018-03-16T14:14:41.829Z,10.7
2018-03-16T14:15:43.460Z,10.7
2018-03-16T14:16:45.332Z,10.8
2018-03-16T14:17:47.262Z,10.8
2018-03-16T14:18:48.876Z,10.8
2018-03-16T14:19:50.783Z,10.9
2018-03-16T14:20:52.793Z,10.9
2018-03-16T14:21:54.792Z,11.0
2018-03-16T14:22:56.304Z,11.0
2018-03-16T14:23:58.012Z,10.9
2018-03-16T14:25:20.324Z,11.0
2018-03-16T14:26:22.524Z,11.0
2018-03-16T14:27:24.484Z,10.9
2018-03-16T14:28:50.275Z,11.0
2018-03-16T14:29:52.364Z,11.0
2018-03-16T14:30:54.391Z,11.0
2018-03-16T14:31:55.946Z,10.9
2018-03-16T14:32:58.023Z,11.1
2018-03-16T14:35:04.886Z,11.1
2018-03-16T14:36:06.409Z,11.1
2018-03-16T14:37:08.695Z,11.1
2018-03-16T14:38:10.124Z,11.1
2018-03-16T14:39:11.588Z,11.1
2018-03-16T14:40:13.012Z,11.1
2018-03-16T14:41:14.437Z,11.2
2018-03-16T14:42:16.638Z,11.2
2018-03-16T14:43:20.505Z,11.2
2018-03-16T14:44:22.086Z,11.2
2018-03-16T14:45:23.565Z,11.1
2018-03-16T14:46:24.993Z,11.2
2018-03-16T14:47:28.134Z,11.2
2018-03-16T14:48:29.600Z,11.2
2018-03-16T14:49:31.177Z,11.1
2018-03-16T14:50:32.709Z,11.2
2018-03-16T14:51:34.098Z,11.2
2018-03-16T14:52:35.573Z,11.2
2018-03-16T14:53:37.249Z,11.1
2018-03-16T14:54:38.743Z,11.0
2018-03-16T14:55:40.254Z,11.1
2018-03-16T14:56:41.784Z,11.1
2018-03-16T14:57:43.387Z,11.2
2018-03-16T14:58:44.843Z,11.1
2018-03-16T14:59:46.391Z,11.1
2018-03-16T15:00:47.870Z,11.2
2018-03-16T15:01:49.460Z,11.2
2018-03-16T15:02:50.912Z,11.2
2018-03-16T15:03:52.580Z,11.1
2018-03-16T15:04:54.061Z,11.2
2018-03-16T15:05:55.622Z,11.3
2018-03-16T15:06:57.114Z,11.3
2018-03-16T15:07:58.699Z,11.3
2018-03-16T15:09:00.202Z,11.3
2018-03-16T15:10:01.696Z,11.3
2018-03-16T15:11:03.234Z,11.2
2018-03-16T15:12:04.805Z,11.2
2018-03-16T15:13:06.405Z,11.2
2018-03-16T15:14:08.021Z,11.2
2018-03-16T15:15:09.603Z,11.2
2018-03-16T15:16:11.140Z,11.2
2018-03-16T15:17:12.678Z,11.2
2018-03-16T15:18:14.165Z,11.2
2018-03-16T15:19:15.593Z,11.1
2018-03-16T15:20:17.001Z,11.1
2018-03-16T15:21:18.464Z,11.1
2018-03-16T15:22:20.851Z,11.0
2018-03-16T15:23:22.351Z,11.1
2018-03-16T15:24:23.822Z,11.0
2018-03-16T15:25:25.287Z,11.0
2018-03-16T15:26:26.860Z,11.1
2018-03-16T15:27:28.457Z,11.1
2018-03-16T15:28:30.100Z,11.0
2018-03-16T15:29:31.565Z,11.0
2018-03-16T15:30:33.027Z,11.0
2018-03-16T15:31:34.557Z,11.0
2018-03-16T15:32:36.200Z,11.0
2018-03-16T15:33:37.785Z,11.0
2018-03-16T15:34:39.283Z,11.0
2018-03-16T15:35:40.811Z,11.0
2018-03-16T15:36:42.435Z,11.0
2018-03-16T15:37:43.902Z,11.0
2018-03-16T15:38:45.502Z,10.9
2018-03-16T15:39:47.039Z,11.0
2018-03-16T15:40:48.547Z,11.0
2018-03-16T15:41:50.107Z,11.0
2018-03-16T15:42:51.577Z,10.9
2018-03-16T15:43:54.069Z,10.9
2018-03-16T15:44:55.531Z,11.0
2018-03-16T15:45:57.086Z,11.0
2018-03-16T15:46:58.565Z,11.0
2018-03-16T15:48:00.781Z,10.9
2018-03-16T15:49:02.297Z,11.0
2018-03-16T15:50:03.827Z,11.0
2018-03-16T15:51:05.305Z,11.0
2018-03-16T15:52:07.062Z,11.0
2018-03-16T15:53:08.673Z,11.0
2018-03-16T15:54:10.158Z,10.9
2018-03-16T15:55:11.750Z,11.0
2018-03-16T15:56:13.244Z,10.9
2018-03-16T15:57:14.709Z,11.0
2018-03-16T15:58:16.221Z,11.0
2018-03-16T15:59:17.726Z,11.0
2018-03-16T16:00:19.294Z,11.0
2018-03-16T16:01:25.466Z,10.9
2018-03-16T16:02:26.984Z,10.9
2018-03-16T16:03:28.464Z,10.9
2018-03-16T16:04:29.985Z,10.9
2018-03-16T16:05:31.439Z,10.9
2018-03-16T16:06:32.919Z,10.9
2018-03-16T16:07:34.408Z,10.9
2018-03-16T16:08:35.922Z,10.9
2018-03-16T16:09:37.457Z,10.9
2018-03-16T16:10:38.985Z,10.9
2018-03-16T16:11:40.657Z,10.9
2018-03-16T16:12:42.235Z,10.9
2018-03-16T16:13:43.793Z,10.9
2018-03-16T16:14:45.248Z,10.9
2018-03-16T16:15:46.771Z,10.9
2018-03-16T16:16:48.275Z,10.9
2018-03-16T16:17:49.834Z,10.8
2018-03-16T16:18:51.668Z,10.9
2018-03-16T16:19:53.347Z,10.9
2018-03-16T16:20:54.860Z,10.9
2018-03-16T16:21:56.369Z,10.8
2018-03-16T16:22:57.857Z,10.8
2018-03-16T16:23:59.526Z,10.8
2018-03-16T16:25:01.961Z,10.7
2018-03-16T16:26:04.168Z,10.7
2018-03-16T16:27:05.665Z,10.7
2018-03-16T16:28:07.279Z,10.6
2018-03-16T16:29:08.788Z,10.7
2018-03-16T16:30:10.314Z,10.6
2018-03-16T16:31:11.857Z,10.6
2018-03-16T16:32:13.380Z,10.6
2018-03-16T16:33:14.926Z,10.5
2018-03-16T16:34:16.417Z,10.5
2018-03-16T16:35:18.413Z,10.4
2018-03-16T16:36:19.932Z,10.3
2018-03-16T16:37:21.752Z,10.3
2018-03-16T16:38:23.387Z,10.3
2018-03-16T16:39:25.031Z,10.2
2018-03-16T16:40:26.677Z,10.2
2018-03-16T16:41:28.289Z,10.1
2018-03-16T16:42:30.404Z,10.1
2018-03-16T16:43:33.375Z,10.1
2018-03-16T16:44:37.357Z,10.1
2018-03-16T16:45:42.023Z,10.0
2018-03-16T16:46:44.807Z,10.0
2018-03-16T16:47:47.303Z,10.0
2018-03-16T16:48:49.014Z,10.0
2018-03-16T16:49:51.591Z,10.0
2018-03-16T16:50:53.974Z,10.0
2018-03-16T16:51:55.567Z,10.0
2018-03-16T16:52:58.915Z,10.0
2018-03-16T16:54:00.866Z,9.9
2018-03-16T16:55:02.782Z,9.9
2018-03-16T16:56:05.800Z,9.9
2018-03-16T16:57:07.700Z,10.0
2018-03-16T16:58:10.369Z,9.9
2018-03-16T16:59:12.694Z,9.9
2018-03-16T17:00:50.341Z,9.9
2018-03-16T17:01:52.132Z,9.9
2018-03-16T17:02:54.015Z,9.9
2018-03-16T17:04:23.369Z,9.8
2018-03-16T17:05:25.141Z,9.8
2018-03-16T17:06:27.664Z,9.8
2018-03-16T17:07:29.422Z,9.8
2018-03-16T17:08:31.990Z,9.8
2018-03-16T17:09:50.150Z,9.8
2018-03-16T17:10:51.824Z,9.8
2018-03-16T17:12:20.506Z,9.8
2018-03-16T17:13:23.057Z,9.8
2018-03-16T17:14:25.587Z,9.8
2018-03-16T17:15:27.436Z,9.7
2018-03-16T17:16:29.009Z,9.8
2018-03-16T17:17:31.562Z,9.7
2018-03-16T17:18:33.220Z,9.7
2018-03-16T17:19:34.825Z,9.7
2018-03-16T17:20:36.635Z,9.7
2018-03-16T17:21:38.232Z,9.7
2018-03-16T17:22:40.685Z,9.8
2018-03-16T17:23:42.498Z,9.8
2018-03-16T17:24:44.030Z,9.7
2018-03-16T17:25:45.930Z,9.6
2018-03-16T17:26:47.506Z,9.6
2018-03-16T17:27:49.031Z,9.7
2018-03-16T17:28:50.928Z,9.7
2018-03-16T17:29:52.478Z,9.5
2018-03-16T17:30:54.082Z,9.5
2018-03-16T17:31:56.482Z,9.6
2018-03-16T17:32:58.095Z,9.6
2018-03-16T17:33:59.613Z,9.6
2018-03-16T17:35:01.157Z,9.6
2018-03-16T17:36:03.477Z,9.6
2018-03-16T17:37:05.183Z,9.6
2018-03-16T17:38:06.746Z,9.5
2018-03-16T17:39:08.248Z,9.6
2018-03-16T17:40:09.918Z,9.6
2018-03-16T17:41:11.566Z,9.6
2018-03-16T17:42:13.048Z,9.6
2018-03-16T17:43:14.492Z,9.6
2018-03-16T17:44:15.997Z,9.6
2018-03-16T17:45:17.525Z,9.6
2018-03-16T17:46:19.097Z,9.5
2018-03-16T17:47:20.919Z,9.5
2018-03-16T17:48:22.867Z,9.5
2018-03-16T17:49:24.687Z,9.5
2018-03-16T17:50:26.238Z,9.5
2018-03-16T17:51:28.690Z,9.4
2018-03-16T17:52:30.232Z,9.4
2018-03-16T17:53:31.723Z,9.5
2018-03-16T17:54:33.190Z,9.4
2018-03-16T17:55:34.835Z,9.4
2018-03-16T17:56:36.880Z,9.4
2018-03-16T17:57:38.400Z,9.2
2018-03-16T17:58:40.187Z,9.3
2018-03-16T17:59:42.066Z,9.2
2018-03-16T18:00:43.518Z,9.1
2018-03-16T18:01:44.988Z,9.1
2018-03-16T18:02:46.750Z,9.1
2018-03-16T18:03:48.323Z,9.1
2018-03-16T18:04:50.216Z,9.1
2018-03-16T18:05:53.137Z,9.0
2018-03-16T18:06:54.856Z,9.0
2018-03-16T18:07:56.742Z,9.0
2018-03-16T18:08:58.718Z,9.0
2018-03-16T18:10:00.544Z,8.9
2018-03-16T18:11:02.049Z,9.0
2018-03-16T18:12:03.998Z,8.8
2018-03-16T18:13:47.479Z,8.8
2018-03-16T18:16:24.345Z,8.7
2018-03-16T18:17:26.064Z,8.6
2018-03-16T18:18:28.101Z,8.6
2018-03-16T18:20:20.592Z,8.6
2018-03-16T18:22:04.167Z,8.7
2018-03-16T18:23:48.566Z,8.7
2018-03-16T18:25:32.304Z,8.6
2018-03-16T18:27:17.628Z,8.6
2018-03-16T18:29:03.399Z,8.6
2018-03-16T18:30:53.781Z,8.6
2018-03-16T18:32:52.104Z,8.6
2018-03-16T18:34:38.479Z,8.6
2018-03-16T18:36:25.064Z,8.6
2018-03-16T18:38:08.217Z,8.7
2018-03-16T18:40:01.616Z,8.6
2018-03-16T18:41:47.848Z,8.6
2018-03-16T18:43:34.368Z,8.7
2018-03-16T18:45:23.233Z,8.7
2018-03-16T18:46:25.269Z,8.6
2018-03-16T18:47:27.084Z,8.6
2018-03-16T18:48:29.233Z,8.7
2018-03-16T18:50:17.222Z,8.7
2018-03-16T18:51:18.888Z,8.6
2018-03-16T18:53:04.587Z,8.6
2018-03-16T18:54:51.947Z,8.6
2018-03-16T18:55:53.718Z,8.6
2018-03-16T18:57:40.338Z,8.7
2018-03-16T18:58:42.546Z,8.6
2018-03-16T19:00:42.920Z,8.6
2018-03-16T19:02:32.795Z,8.6
2018-03-16T19:03:34.330Z,8.6
2018-03-16T19:05:22.654Z,8.7
2018-03-16T19:06:24.240Z,8.6
2018-03-16T19:08:12.087Z,8.6
2018-03-16T19:09:14.089Z,8.6
2018-03-16T19:11:15.554Z,8.6
2018-03-16T19:13:08.196Z,8.6
2018-03-16T19:15:13.722Z,8.6
2018-03-16T19:17:00.425Z,8.6
2018-03-16T19:18:02.441Z,8.7
2018-03-16T19:19:04.979Z,8.6
2018-03-16T19:20:06.821Z,8.5
2018-03-16T19:21:08.856Z,8.6
2018-03-16T19:22:10.377Z,8.6
2018-03-16T19:23:11.865Z,8.6
2018-03-16T19:24:13.354Z,8.5
2018-03-16T19:25:14.871Z,8.7
2018-03-16T19:26:16.394Z,8.5
2018-03-16T19:27:17.865Z,8.6
2018-03-16T19:28:20.136Z,8.6
2018-03-16T19:29:21.631Z,8.7
2018-03-16T19:30:23.164Z,8.6
2018-03-16T19:31:24.771Z,8.6
2018-03-16T19:32:26.259Z,8.6
2018-03-16T19:33:27.691Z,8.6
2018-03-16T19:34:29.201Z,8.5
2018-03-16T19:35:30.919Z,8.7
2018-03-16T19:36:32.609Z,8.6
2018-03-16T19:37:34.116Z,8.6
2018-03-16T19:38:35.635Z,8.6
2018-03-16T19:39:37.387Z,8.6
2018-03-16T19:40:39.065Z,8.5
2018-03-16T19:41:40.919Z,8.6
2018-03-16T19:42:42.530Z,8.7
2018-03-16T19:43:44.397Z,8.6
2018-03-16T19:44:45.930Z,8.5
2018-03-16T19:45:52.036Z,8.6
2018-03-16T19:46:53.584Z,8.5
2018-03-16T19:47:55.090Z,8.6
2018-03-16T19:48:56.730Z,8.6
2018-03-16T19:49:58.256Z,8.6
2018-03-16T19:50:59.749Z,8.6
2018-03-16T19:52:01.344Z,8.5
2018-03-16T19:53:02.854Z,8.6
2018-03-16T19:54:04.377Z,8.6
2018-03-16T19:55:05.876Z,8.6
2018-03-16T19:56:07.461Z,8.5
2018-03-16T19:57:08.962Z,8.6
2018-03-16T19:58:10.732Z,8.5
2018-03-16T19:59:12.280Z,8.5
2018-03-16T20:00:13.798Z,8.6
2018-03-16T20:01:15.369Z,8.6
2018-03-16T20:02:16.990Z,8.6
2018-03-16T20:03:18.573Z,8.6
2018-03-16T20:04:20.104Z,8.6
2018-03-16T20:05:21.486Z,8.6
2018-03-16T20:06:23.065Z,8.5
2018-03-16T20:07:24.720Z,8.5
2018-03-16T20:08:26.186Z,8.6
2018-03-16T20:09:27.685Z,8.5
2018-03-16T20:10:29.258Z,8.5
2018-03-16T20:11:30.726Z,8.6
2018-03-16T20:12:32.295Z,8.5
2018-03-16T20:13:33.816Z,8.5
2018-03-16T20:14:35.372Z,8.5
2018-03-16T20:15:36.869Z,8.5
2018-03-16T20:16:38.431Z,8.5
2018-03-16T20:17:40.082Z,8.5
2018-03-16T20:18:41.855Z,8.5
2018-03-16T20:19:43.639Z,8.5
2018-03-16T20:20:45.503Z,8.5
2018-03-16T20:21:48.396Z,8.5
2018-03-16T20:22:50.722Z,8.6
2018-03-16T20:23:52.481Z,8.5
2018-03-16T20:24:53.938Z,8.5
2018-03-16T20:25:55.544Z,8.5
2018-03-16T20:26:57.033Z,8.5
2018-03-16T20:27:58.464Z,8.4
2018-03-16T20:28:59.933Z,8.4
2018-03-16T20:30:01.376Z,8.4
2018-03-16T20:31:02.842Z,8.4
2018-03-16T20:32:04.246Z,8.5
2018-03-16T20:33:05.704Z,8.4
2018-03-16T20:34:07.246Z,8.3
2018-03-16T20:35:08.875Z,8.3
2018-03-16T20:36:10.423Z,8.3
2018-03-16T20:37:11.983Z,8.3
2018-03-16T20:38:13.485Z,8.3
2018-03-16T20:39:15.023Z,8.3
2018-03-16T20:40:16.757Z,8.2
2018-03-16T20:41:18.408Z,8.4
2018-03-16T20:42:20.705Z,8.4
2018-03-16T20:43:22.281Z,8.3
2018-03-16T20:44:23.920Z,8.3
2018-03-16T20:45:25.475Z,8.3
2018-03-16T20:46:26.993Z,8.3
2018-03-16T20:47:28.518Z,8.3
2018-03-16T20:48:29.952Z,8.2
2018-03-16T20:49:31.611Z,8.3
2018-03-16T20:50:33.178Z,8.2
2018-03-16T20:51:34.638Z,8.2
2018-03-16T20:52:36.098Z,8.2
2018-03-16T20:53:37.861Z,8.2
2018-03-16T20:54:39.418Z,8.2
2018-03-16T20:55:40.955Z,8.2
2018-03-16T20:56:42.767Z,8.1
2018-03-16T20:57:44.299Z,8.1
2018-03-16T20:58:45.987Z,8.1
2018-03-16T20:59:47.510Z,8.1
2018-03-16T21:00:48.993Z,8.0
2018-03-16T21:01:50.579Z,8.0
2018-03-16T21:02:52.266Z,8.1
2018-03-16T21:03:54.373Z,8.0
2018-03-16T21:04:55.942Z,7.9
2018-03-16T21:05:57.532Z,8.0
2018-03-16T21:06:59.133Z,8.0
2018-03-16T21:08:00.693Z,7.9
2018-03-16T21:09:02.273Z,7.9
2018-03-16T21:10:03.838Z,7.9
2018-03-16T21:11:05.437Z,7.9
2018-03-16T21:12:07.405Z,7.9
2018-03-16T21:13:09.036Z,7.8
2018-03-16T21:14:10.957Z,7.9
2018-03-16T21:15:13.535Z,7.9
2018-03-16T21:16:15.258Z,7.9
2018-03-16T21:17:16.862Z,7.8
2018-03-16T21:18:18.973Z,7.9
2018-03-16T21:19:21.014Z,7.8
2018-03-16T21:20:22.991Z,7.8
2018-03-16T21:21:25.112Z,7.8
2018-03-16T21:22:28.066Z,7.9
2018-03-16T21:23:30.680Z,7.8
2018-03-16T21:25:49.755Z,8.0
2018-03-16T21:26:51.976Z,7.9
2018-03-16T21:27:54.358Z,7.8
2018-03-16T21:28:56.338Z,7.9
2018-03-16T21:29:59.008Z,7.9
2018-03-16T21:31:01.672Z,7.9
2018-03-16T21:50:20.266Z,7.8
2018-03-16T21:51:23.349Z,7.8
2018-03-16T21:52:25.563Z,7.8
2018-03-16T21:53:27.494Z,7.8
2018-03-16T21:54:29.668Z,7.8
2018-03-16T21:55:31.423Z,7.8
2018-03-16T21:56:33.393Z,7.8
2018-03-16T21:57:35.231Z,7.7
2018-03-16T21:58:37.174Z,7.7
2018-03-16T21:59:39.065Z,7.7
2018-03-16T22:00:40.961Z,7.7
2018-03-16T22:01:43.148Z,7.6
2018-03-16T22:02:45.358Z,7.6
2018-03-16T22:03:47.302Z,7.6
2018-03-16T22:04:49.354Z,7.6
2018-03-16T22:05:51.422Z,7.6
2018-03-16T22:06:53.864Z,7.5
2018-03-16T22:07:56.037Z,7.6
2018-03-16T22:08:58.036Z,7.6
2018-03-16T22:09:59.994Z,7.5
2018-03-16T22:11:01.734Z,7.5
2018-03-16T22:12:03.942Z,7.5
2018-03-16T22:13:05.779Z,7.5
2018-03-16T22:14:07.781Z,7.5
2018-03-16T22:15:09.597Z,7.5
2018-03-16T22:16:11.514Z,7.3
2018-03-16T22:17:13.428Z,7.3
2018-03-16T22:18:16.166Z,7.3
2018-03-16T22:19:18.380Z,7.4
2018-03-16T22:20:20.462Z,7.4
2018-03-16T22:21:23.284Z,7.4
2018-03-16T22:22:24.990Z,7.3
2018-03-16T22:23:26.804Z,7.3
2018-03-16T22:24:29.337Z,7.2
2018-03-16T22:25:32.077Z,7.3
2018-03-16T22:26:34.035Z,7.2
2018-03-16T22:27:35.888Z,7.2
2018-03-16T22:28:38.350Z,7.2
2018-03-16T22:29:40.151Z,7.2
2018-03-16T22:30:42.181Z,7.1
2018-03-16T22:31:45.056Z,7.1
2018-03-16T22:32:48.616Z,7.1
2018-03-16T22:33:50.159Z,7.1
2018-03-16T22:34:51.745Z,7.1
2018-03-16T22:35:53.525Z,7.0
2018-03-16T22:36:55.757Z,7.0
2018-03-16T22:38:44.006Z,7.0
2018-03-16T22:39:45.827Z,7.0
2018-03-16T22:41:33.180Z,7.0
2018-03-16T22:42:34.862Z,6.9
2018-03-16T22:44:25.571Z,6.9
2018-03-16T22:45:27.461Z,6.9
2018-03-16T22:46:29.245Z,6.9
2018-03-16T22:47:31.642Z,6.9
2018-03-16T22:49:23.705Z,6.8
2018-03-16T22:50:25.338Z,7.0
2018-03-16T22:52:12.133Z,6.9
2018-03-16T22:53:13.789Z,6.9
2018-03-16T22:55:05.930Z,6.8
2018-03-16T22:56:07.551Z,6.8
2018-03-16T22:57:54.209Z,6.7
2018-03-16T22:59:41.625Z,6.7
2018-03-16T23:01:30.738Z,6.7
2018-03-16T23:03:23.045Z,6.6
2018-03-16T23:04:25.686Z,6.7
2018-03-16T23:06:15.095Z,6.5
2018-03-16T23:07:16.801Z,6.6
2018-03-16T23:08:18.444Z,6.5
2018-03-16T23:09:20.050Z,6.5
2018-03-16T23:11:06.605Z,6.5
2018-03-16T23:12:08.158Z,6.5
2018-03-16T23:13:09.897Z,6.4
2018-03-16T23:15:00.933Z,6.5
2018-03-16T23:16:49.679Z,6.4
2018-03-16T23:18:35.501Z,6.3
2018-03-16T23:20:23.274Z,6.3
2018-03-16T23:21:25.349Z,6.2
2018-03-16T23:22:28.086Z,6.2
2018-03-16T23:24:20.418Z,6.2
2018-03-16T23:26:05.714Z,6.1
2018-03-16T23:27:56.699Z,6.2
2018-03-16T23:29:48.691Z,6.2
2018-03-16T23:30:50.960Z,6.2
2018-03-16T23:32:41.465Z,6.2
2018-03-16T23:34:31.461Z,6.1
2018-03-16T23:36:24.131Z,6.2
2018-03-16T23:37:25.670Z,6.1
2018-03-16T23:39:11.161Z,6.2
2018-03-16T23:41:07.549Z,6.2
2018-03-16T23:42:59.504Z,6.2
2018-03-16T23:44:01.368Z,6.2
2018-03-16T23:45:51.063Z,6.1
2018-03-16T23:46:52.769Z,6.2
2018-03-16T23:48:45.666Z,6.2
2018-03-16T23:50:34.922Z,6.1
2018-03-16T23:52:22.803Z,6.2
2018-03-16T23:53:24.478Z,6.1
2018-03-16T23:55:11.832Z,6.2
2018-03-16T23:57:01.306Z,6.2
2018-03-16T23:58:03.055Z,6.1
2018-03-16T23:59:50.496Z,6.1
